Time;durP1;ratioP1;P1;durP2;ratioP2;P2;SDS_P1;SDS_P2;PMS_P1;PMS_P2;Temp;Humidity;BMP_temperature;BMP_pressure;BME280_temperature;BME280_humidity;BME280_pressure;Samples;Min_cycle;Max_cycle;Signal;HPM_P1;HPM_P2
2021/12/15 00:01:49;;;;;;;27.75;14.15;;;4.10;90.70;;;;;;5013867;28;20033;-76
2021/12/15 00:04:15;;;;;;;28.42;15.18;;;4.10;90.70;;;;;;5012885;28;20026;-77
2021/12/15 00:06:41;;;;;;;22.42;12.15;;;4.10;90.40;;;;;;5011162;28;20450;-76
2021/12/15 00:09:10;;;;;;;20.98;11.85;;;4.10;89.90;;;;;;5010740;28;20061;-76
2021/12/15 00:11:37;;;;;;;25.38;15.27;;;4.10;90.30;;;;;;5008319;28;20415;-76
2021/12/15 00:14:13;;;;;;;26.75;15.40;;;4.10;90.60;;;;;;5014876;28;20030;-76
2021/12/15 00:16:39;;;;;;;34.05;17.83;;;4.20;90.30;;;;;;5011387;28;20084;-75
2021/12/15 00:19:06;;;;;;;21.50;11.07;;;4.20;90.40;;;;;;5018107;28;20025;-76
2021/12/15 00:21:32;;;;;;;24.45;13.32;;;4.20;90.10;;;;;;5015156;28;20112;-76
2021/12/15 00:23:58;;;;;;;16.58;9.35;;;4.20;89.90;;;;;;5012810;28;20018;-77
2021/12/15 00:26:25;;;;;;;14.30;7.85;;;4.30;90.00;;;;;;5015453;28;20037;-77
2021/12/15 00:28:51;;;;;;;7.72;3.72;;;4.30;90.50;;;;;;5012828;28;20316;-77
2021/12/15 00:31:18;;;;;;;7.13;4.00;;;4.40;90.30;;;;;;5015036;28;20034;-77
2021/12/15 00:33:44;;;;;;;6.85;3.75;;;4.30;91.90;;;;;;5013812;28;20334;-76
2021/12/15 00:36:11;;;;;;;6.10;3.75;;;4.30;92.30;;;;;;5014871;28;20014;-78
2021/12/15 00:38:38;;;;;;;7.10;4.13;;;4.40;91.50;;;;;;5011759;28;20022;-77
2021/12/15 00:41:04;;;;;;;21.20;10.35;;;4.40;92.90;;;;;;5011882;28;20030;-77
2021/12/15 00:43:30;;;;;;;26.30;13.07;;;4.30;93.40;;;;;;5015288;28;20295;-76
2021/12/15 00:45:56;;;;;;;16.40;9.05;;;4.30;93.60;;;;;;5013139;28;20049;-77
2021/12/15 00:48:22;;;;;;;19.67;10.65;;;4.20;93.40;;;;;;5019599;28;20400;-76
2021/12/15 00:50:48;;;;;;;20.90;10.82;;;4.20;93.50;;;;;;5018828;28;20311;-77
2021/12/15 00:53:14;;;;;;;26.35;13.20;;;4.10;93.20;;;;;;5016054;28;20026;-76
2021/12/15 00:55:43;;;;;;;24.60;12.02;;;4.10;93.20;;;;;;5017823;28;20034;-77
2021/12/15 00:58:11;;;;;;;23.02;12.20;;;4.20;93.10;;;;;;5017814;28;20025;-76
2021/12/15 01:00:46;;;;;;;21.10;11.43;;;4.20;92.60;;;;;;5019034;28;20026;-77
2021/12/15 01:03:13;;;;;;;24.65;13.07;;;4.20;92.50;;;;;;5015154;28;20026;-77
2021/12/15 01:05:44;;;;;;;26.45;13.50;;;4.20;92.80;;;;;;5028431;28;20088;-77
2021/12/15 01:08:17;;;;;;;23.40;12.75;;;4.20;92.90;;;;;;5023844;28;20025;-77
2021/12/15 01:21:51;;;;;;;35.67;15.40;;;4.10;92.60;;;;;;5012881;28;20117;-77
2021/12/15 01:24:17;;;;;;;24.50;13.32;;;4.10;92.10;;;;;;5017448;28;20042;-77
2021/12/15 01:26:43;;;;;;;25.13;13.68;;;4.10;92.40;;;;;;5016888;28;20437;-76
2021/12/15 01:29:09;;;;;;;30.50;13.98;;;4.10;92.10;;;;;;5017335;28;20120;-77
2021/12/15 01:31:35;;;;;;;26.70;14.07;;;4.10;92.10;;;;;;5021406;28;20080;-77
2021/12/15 01:34:01;;;;;;;32.50;15.05;;;4.10;92.10;;;;;;5017822;28;20425;-75
2021/12/15 01:36:26;;;;;;;25.30;13.95;;;4.10;92.20;;;;;;5017650;28;20097;-77
2021/12/15 01:38:52;;;;;;;26.80;14.77;;;4.10;91.40;;;;;;5015201;28;20022;-76
2021/12/15 01:41:22;;;;;;;36.72;16.08;;;4.10;91.40;;;;;;5014522;28;20034;-77
2021/12/15 01:46:55;;;;;;;14.75;7.82;;;4.20;91.80;;;;;;5016563;28;20030;-77
2021/12/15 01:49:29;;;;;;;13.13;7.47;;;4.20;92.10;;;;;;5030853;28;20034;-76
2021/12/15 01:51:58;;;;;;;21.55;11.13;;;4.20;93.00;;;;;;5015111;28;20053;-76
2021/12/15 01:54:27;;;;;;;19.70;11.00;;;4.20;93.20;;;;;;5017517;28;20027;-77
2021/12/15 01:56:53;;;;;;;18.77;11.25;;;4.20;93.40;;;;;;5013031;28;20030;-76
2021/12/15 01:59:22;;;;;;;7.53;4.72;;;4.30;92.50;;;;;;5007571;28;20189;-76
2021/12/15 02:01:48;;;;;;;12.93;7.60;;;4.30;94.30;;;;;;5015426;28;20030;-77
2021/12/15 02:04:16;;;;;;;8.25;4.57;;;4.20;94.20;;;;;;5015324;28;20026;-76
2021/12/15 02:06:44;;;;;;;7.70;4.30;;;4.20;95.80;;;;;;5016176;28;20414;-76
2021/12/15 02:09:12;;;;;;;16.85;9.75;;;4.20;97.20;;;;;;5020491;28;20036;-77
2021/12/15 02:11:38;;;;;;;16.88;9.70;;;4.20;97.70;;;;;;5014113;28;20363;-76
2021/12/15 02:14:04;;;;;;;16.75;9.45;;;4.10;97.80;;;;;;5014202;28;20168;-76
2021/12/15 02:16:30;;;;;;;13.93;7.82;;;4.10;97.70;;;;;;5014460;28;20018;-77
2021/12/15 02:18:56;;;;;;;13.85;7.55;;;4.10;97.40;;;;;;5015023;28;20026;-75
2021/12/15 02:21:25;;;;;;;7.03;4.10;;;4.20;97.30;;;;;;5016678;28;20445;-76
2021/12/15 02:23:55;;;;;;;7.22;4.20;;;4.20;97.80;;;;;;5015499;28;20522;-76
2021/12/15 02:26:24;;;;;;;7.82;4.80;;;4.20;98.00;;;;;;5015634;28;20343;-77
2021/12/15 02:28:56;;;;;;;9.93;5.82;;;4.20;98.00;;;;;;5016801;28;20041;-77
2021/12/15 02:31:54;;;;;;;11.32;6.93;;;4.20;98.00;;;;;;5015639;28;20037;-77
2021/12/15 02:37:20;;;;;;;13.57;7.97;;;4.10;98.00;;;;;;5010771;28;20022;-76
2021/12/15 02:39:52;;;;;;;10.23;6.20;;;4.20;98.00;;;;;;5031684;28;20025;-77
2021/12/15 02:42:19;;;;;;;9.77;5.93;;;4.20;97.60;;;;;;5015874;28;20316;-77
2021/12/15 02:44:45;;;;;;;9.02;5.68;;;4.20;98.00;;;;;;5016272;28;20112;-77
2021/12/15 02:47:13;;;;;;;10.68;6.25;;;4.30;98.00;;;;;;5012409;28;20319;-76
2021/12/15 02:49:39;;;;;;;11.15;7.00;;;4.30;98.00;;;;;;5016874;28;20075;-76
2021/12/15 02:52:06;;;;;;;12.45;7.45;;;4.20;98.00;;;;;;5011617;28;20040;-76
2021/12/15 02:54:35;;;;;;;14.80;8.20;;;4.20;98.00;;;;;;5010058;28;20056;-76
2021/12/15 02:57:12;;;;;;;13.68;8.93;;;4.10;98.00;;;;;;5015149;28;20022;-76
2021/12/15 02:59:53;;;;;;;12.60;7.60;;;4.10;98.00;;;;;;5014826;28;20037;-76
2021/12/15 03:05:07;;;;;;;12.20;7.07;;;4.20;98.00;;;;;;5016505;28;20033;-77
2021/12/15 03:08:22;;;;;;;12.13;7.43;;;4.10;98.00;;;;;;5015450;28;20029;-76
2021/12/15 03:15:50;;;;;;;13.90;7.88;;;4.10;98.00;;;;;;5014108;28;20033;-76
2021/12/15 03:18:25;;;;;;;11.18;7.03;;;4.10;98.00;;;;;;5010747;28;20030;-76
2021/12/15 03:21:15;;;;;;;13.23;7.25;;;4.10;98.00;;;;;;5010758;28;20100;-77
2021/12/15 03:23:52;;;;;;;12.80;7.30;;;4.10;98.00;;;;;;5010547;28;20722;-76
2021/12/15 03:26:26;;;;;;;10.70;6.90;;;4.10;98.00;;;;;;4996149;28;20033;-76
2021/12/15 03:39:26;;;;;;;9.38;5.45;;;4.00;98.00;;;;;;5013186;28;20108;-76
2021/12/15 03:41:59;;;;;;;7.60;4.70;;;4.00;98.00;;;;;;5017544;28;20030;-76
2021/12/15 03:44:25;;;;;;;9.10;5.22;;;4.00;98.00;;;;;;5013025;28;20025;-75
2021/12/15 03:46:51;;;;;;;8.02;5.00;;;4.00;98.00;;;;;;5014151;28;20053;-75
2021/12/15 03:49:18;;;;;;;8.93;5.50;;;4.00;98.00;;;;;;5023060;28;20026;-76
2021/12/15 03:51:44;;;;;;;8.90;5.75;;;4.10;98.00;;;;;;5014586;28;20100;-76
2021/12/15 03:54:10;;;;;;;9.48;5.90;;;4.10;98.00;;;;;;5013831;28;20018;-76
2021/12/15 03:56:39;;;;;;;7.82;5.13;;;4.10;98.00;;;;;;5012271;28;20433;-77
2021/12/15 03:59:05;;;;;;;8.88;5.38;;;4.10;98.00;;;;;;5019114;28;20054;-77
2021/12/15 04:01:31;;;;;;;10.25;5.57;;;4.10;98.00;;;;;;5012855;28;20068;-77
2021/12/15 04:03:57;;;;;;;7.07;4.72;;;4.00;98.00;;;;;;5013073;28;20377;-77
2021/12/15 04:06:26;;;;;;;7.75;4.70;;;4.10;98.00;;;;;;5013619;28;20104;-76
2021/12/15 04:08:53;;;;;;;7.00;4.50;;;4.10;98.00;;;;;;5011875;28;20029;-76
2021/12/15 04:11:22;;;;;;;8.98;5.90;;;4.10;98.00;;;;;;5012797;28;20034;-76
2021/12/15 04:13:48;;;;;;;7.80;5.30;;;4.00;98.00;;;;;;5011553;28;20343;-76
2021/12/15 04:16:40;;;;;;;7.65;4.85;;;4.00;98.00;;;;;;5014313;28;20022;-76
2021/12/15 04:19:16;;;;;;;8.75;5.20;;;3.90;98.00;;;;;;5017184;28;20315;-76
2021/12/15 04:21:42;;;;;;;8.57;5.55;;;3.90;98.00;;;;;;5013422;28;20041;-76
2021/12/15 04:24:14;;;;;;;9.18;5.35;;;3.90;98.00;;;;;;5012503;28;20029;-76
2021/12/15 04:26:41;;;;;;;8.20;5.60;;;3.90;98.00;;;;;;5013451;28;20025;-75
2021/12/15 04:29:07;;;;;;;9.07;5.40;;;3.90;98.00;;;;;;5012484;28;20076;-77
2021/12/15 04:31:38;;;;;;;7.97;5.10;;;3.90;98.00;;;;;;5005592;28;20435;-76
2021/12/15 04:34:06;;;;;;;8.98;5.22;;;3.90;98.00;;;;;;5013452;28;20030;-77
2021/12/15 04:36:37;;;;;;;7.88;5.18;;;3.90;98.00;;;;;;5014979;28;20041;-76
2021/12/15 04:39:06;;;;;;;8.90;5.50;;;3.80;98.00;;;;;;5011455;28;20152;-76
2021/12/15 04:41:32;;;;;;;7.07;4.53;;;3.80;98.00;;;;;;5003564;28;20466;-76
2021/12/15 04:44:00;;;;;;;8.40;5.38;;;3.80;98.00;;;;;;5014995;28;20025;-76
2021/12/15 04:46:35;;;;;;;7.72;4.90;;;3.80;98.00;;;;;;5009981;28;20053;-76
2021/12/15 04:49:05;;;;;;;9.65;5.88;;;3.80;98.00;;;;;;4999576;28;20045;-77
2021/12/15 04:51:31;;;;;;;7.10;4.85;;;3.90;98.00;;;;;;5019125;28;20030;-76
2021/12/15 04:53:57;;;;;;;7.47;5.03;;;3.80;98.00;;;;;;5005215;28;20315;-76
2021/12/15 04:56:25;;;;;;;7.35;4.82;;;3.90;98.00;;;;;;5011997;28;20044;-76
2021/12/15 04:58:53;;;;;;;8.35;4.68;;;3.90;98.00;;;;;;5015546;28;20056;-75
2021/12/15 05:01:19;;;;;;;9.02;5.53;;;3.80;98.00;;;;;;5010286;28;20030;-76
2021/12/15 05:03:45;;;;;;;7.18;4.90;;;3.80;98.00;;;;;;5014478;28;20022;-76
2021/12/15 05:06:11;;;;;;;8.55;4.97;;;3.80;98.00;;;;;;5013367;28;20026;-76
2021/12/15 05:08:39;;;;;;;7.63;4.20;;;3.80;98.00;;;;;;5008872;28;20034;-77
2021/12/15 05:11:07;;;;;;;10.05;5.93;;;3.80;98.00;;;;;;5012565;28;20032;-76
2021/12/15 05:13:36;;;;;;;7.38;4.63;;;3.90;98.00;;;;;;5012973;28;20024;-76
2021/12/15 05:16:03;;;;;;;8.13;4.85;;;3.80;98.00;;;;;;5013254;28;20026;-77
2021/12/15 05:18:29;;;;;;;7.40;4.47;;;3.80;98.00;;;;;;5012072;28;20026;-77
2021/12/15 05:20:57;;;;;;;7.28;4.70;;;3.80;98.00;;;;;;5013951;28;20414;-77
2021/12/15 05:23:28;;;;;;;7.35;4.78;;;3.80;98.00;;;;;;5013557;28;20030;-76
2021/12/15 05:25:54;;;;;;;6.95;4.70;;;3.80;98.00;;;;;;5016468;28;20060;-76
2021/12/15 05:28:20;;;;;;;6.60;4.05;;;3.80;97.90;;;;;;5014428;28;20116;-77
2021/12/15 05:30:47;;;;;;;6.93;4.28;;;3.80;98.00;;;;;;5016623;28;20034;-77
2021/12/15 05:33:12;;;;;;;7.97;4.78;;;3.80;98.00;;;;;;5014491;28;20021;-76
2021/12/15 05:35:41;;;;;;;7.40;4.68;;;3.80;98.00;;;;;;5017467;28;20029;-76
2021/12/15 05:38:08;;;;;;;6.47;3.97;;;3.80;98.00;;;;;;5016686;28;20582;-76
2021/12/15 05:40:34;;;;;;;7.63;4.57;;;3.80;98.00;;;;;;5017882;28;20117;-77
2021/12/15 05:43:01;;;;;;;7.80;3.80;;;3.80;98.00;;;;;;5017848;28;20026;-76
2021/12/15 05:45:31;;;;;;;6.80;4.18;;;3.70;98.00;;;;;;5017134;28;20116;-77
2021/12/15 05:47:57;;;;;;;5.45;3.20;;;3.70;98.00;;;;;;5018203;28;20361;-77
2021/12/15 05:50:25;;;;;;;5.28;3.00;;;3.70;98.00;;;;;;5016682;28;20057;-76
2021/12/15 05:52:51;;;;;;;4.82;2.80;;;3.70;98.00;;;;;;5015454;28;20029;-76
2021/12/15 05:55:18;;;;;;;6.05;3.40;;;3.70;98.00;;;;;;5017618;28;20025;-76
2021/12/15 05:57:44;;;;;;;6.28;3.45;;;3.70;98.00;;;;;;5013762;28;20026;-75
2021/12/15 06:00:16;;;;;;;5.22;3.13;;;3.70;98.00;;;;;;5013349;28;20044;-75
2021/12/15 06:02:42;;;;;;;7.00;3.70;;;3.60;98.00;;;;;;5006043;28;20026;-77
2021/12/15 06:05:10;;;;;;;6.53;3.45;;;3.60;98.00;;;;;;5016988;28;20030;-77
2021/12/15 06:07:36;;;;;;;5.78;3.30;;;3.60;98.00;;;;;;5015826;28;20014;-76
2021/12/15 06:10:04;;;;;;;5.80;3.40;;;3.60;98.00;;;;;;5016643;28;20037;-76
2021/12/15 06:12:29;;;;;;;6.05;3.30;;;3.70;98.00;;;;;;5016642;28;20018;-75
2021/12/15 06:14:55;;;;;;;6.45;3.78;;;3.60;98.00;;;;;;5016854;28;20030;-76
2021/12/15 06:17:25;;;;;;;6.15;3.13;;;3.60;98.00;;;;;;5016852;28;20037;-75
2021/12/15 06:19:52;;;;;;;5.20;3.20;;;3.60;98.00;;;;;;5016644;28;20049;-76
2021/12/15 06:22:24;;;;;;;5.15;2.83;;;3.50;98.00;;;;;;5015910;28;20037;-76
2021/12/15 06:24:51;;;;;;;6.88;3.65;;;3.40;98.00;;;;;;5015404;28;20029;-75
2021/12/15 06:27:19;;;;;;;5.68;3.30;;;3.40;98.00;;;;;;5016550;28;20037;-76
2021/12/15 06:29:46;;;;;;;6.80;4.28;;;3.40;98.00;;;;;;5014585;28;20443;-75
2021/12/15 06:32:12;;;;;;;6.35;4.25;;;3.40;98.00;;;;;;5015992;28;20427;-75
2021/12/15 06:34:37;;;;;;;5.30;3.72;;;3.40;98.00;;;;;;5016057;28;20422;-75
2021/12/15 06:37:04;;;;;;;5.63;3.67;;;3.40;98.00;;;;;;5015408;28;20026;-75
2021/12/15 06:39:30;;;;;;;4.25;2.60;;;3.40;98.00;;;;;;5001582;28;20342;-74
2021/12/15 06:41:56;;;;;;;4.47;2.65;;;3.40;98.00;;;;;;5017171;28;20315;-75
2021/12/15 06:44:21;;;;;;;5.63;3.35;;;3.40;98.00;;;;;;5017139;28;20025;-75
2021/12/15 06:58:11;;;;;;;5.25;3.38;;;3.30;97.90;;;;;;5017317;28;20033;-77
2021/12/15 07:00:22;;;;;;;5.75;3.65;;;3.30;98.00;;;;;;5017298;28;20018;-76
2021/12/15 07:02:48;;;;;;;6.35;3.60;;;3.30;97.90;;;;;;5017613;28;20326;-76
2021/12/15 07:05:15;;;;;;;6.18;3.88;;;3.30;98.00;;;;;;5011186;28;20026;-76
2021/12/15 07:07:44;;;;;;;5.65;3.10;;;3.30;98.00;;;;;;4999884;28;20107;-76
2021/12/15 07:10:13;;;;;;;5.80;2.90;;;3.30;98.00;;;;;;5015301;28;20060;-76
2021/12/15 07:12:39;;;;;;;6.32;4.68;;;3.30;98.00;;;;;;5015650;28;20030;-76
2021/12/15 07:15:06;;;;;;;5.78;4.07;;;3.20;98.00;;;;;;5017078;28;20398;-76
2021/12/15 07:17:32;;;;;;;5.75;3.83;;;3.30;98.00;;;;;;5015032;28;20026;-76
2021/12/15 07:22:33;;;;;;;6.63;4.18;;;3.20;98.00;;;;;;5015518;28;20058;-76
2021/12/15 07:25:00;;;;;;;6.30;3.75;;;3.20;98.00;;;;;;5016656;28;20427;-75
2021/12/15 07:27:26;;;;;;;5.18;3.08;;;3.10;98.00;;;;;;5016729;28;20040;-76
2021/12/15 07:29:52;;;;;;;5.82;3.55;;;3.10;98.00;;;;;;5016861;28;20116;-76
2021/12/15 07:32:18;;;;;;;5.30;3.47;;;3.10;98.00;;;;;;5010009;28;20109;-76
2021/12/15 07:34:44;;;;;;;4.78;2.95;;;3.10;98.00;;;;;;4999608;28;20422;-78
2021/12/15 07:37:10;;;;;;;6.43;3.50;;;3.10;98.00;;;;;;5014888;28;20030;-76
2021/12/15 07:39:37;;;;;;;9.50;5.05;;;3.10;98.00;;;;;;5016807;28;20091;-76
2021/12/15 07:42:10;;;;;;;6.63;4.38;;;3.10;98.00;;;;;;5015522;28;20064;-76
2021/12/15 07:44:36;;;;;;;7.15;4.88;;;3.10;98.00;;;;;;5016546;28;20038;-75
2021/12/15 07:47:03;;;;;;;8.73;4.53;;;3.10;98.00;;;;;;5015412;28;20080;-76
2021/12/15 07:49:29;;;;;;;6.00;3.92;;;3.10;98.00;;;;;;5016595;28;20373;-76
2021/12/15 07:52:04;;;;;;;5.95;4.05;;;3.10;98.00;;;;;;5013233;28;20438;-75
2021/12/15 07:54:33;;;;;;;6.05;3.83;;;3.10;98.00;;;;;;5015987;28;20327;-76
2021/12/15 07:57:05;;;;;;;6.60;3.80;;;3.10;98.00;;;;;;5014502;28;20030;-76
2021/12/15 07:59:30;;;;;;;6.53;4.72;;;3.10;98.00;;;;;;5016266;28;20105;-76
2021/12/15 08:01:56;;;;;;;6.65;4.13;;;3.10;98.00;;;;;;5016317;28;20053;-76
2021/12/15 08:04:22;;;;;;;6.60;4.03;;;3.10;98.00;;;;;;5016202;28;20034;-76
2021/12/15 08:06:48;;;;;;;6.72;3.80;;;3.00;98.00;;;;;;5014889;28;20033;-76
2021/12/15 08:09:14;;;;;;;5.68;3.55;;;3.00;98.00;;;;;;5015807;28;20045;-75
2021/12/15 08:11:40;;;;;;;5.13;3.28;;;3.00;98.00;;;;;;5015563;28;20026;-78
2021/12/15 08:14:07;;;;;;;5.63;3.45;;;3.00;98.00;;;;;;5014279;28;20041;-75
2021/12/15 08:16:33;;;;;;;5.38;3.40;;;3.00;98.00;;;;;;5016110;28;20034;-75
2021/12/15 08:18:59;;;;;;;5.63;3.58;;;3.00;98.00;;;;;;5015801;28;20018;-76
2021/12/15 08:21:24;;;;;;;6.45;3.67;;;2.90;98.00;;;;;;5016281;28;20037;-76
2021/12/15 08:23:50;;;;;;;5.80;3.53;;;2.90;98.00;;;;;;5014355;28;20022;-75
2021/12/15 08:26:17;;;;;;;7.05;4.35;;;3.00;98.00;;;;;;5015983;28;20037;-76
2021/12/15 08:28:43;;;;;;;6.18;3.47;;;3.00;98.00;;;;;;5015620;28;20072;-75
2021/12/15 08:31:09;;;;;;;6.68;4.18;;;3.00;98.00;;;;;;5015525;28;20066;-75
2021/12/15 08:33:35;;;;;;;5.75;3.60;;;3.00;98.00;;;;;;5015633;28;20053;-76
2021/12/15 08:36:05;;;;;;;6.10;4.00;;;3.00;98.00;;;;;;5014931;28;20022;-75
2021/12/15 08:38:34;;;;;;;4.60;2.95;;;3.00;98.00;;;;;;5014651;28;20105;-75
2021/12/15 08:41:02;;;;;;;5.35;3.20;;;3.00;98.00;;;;;;5016066;28;20030;-76
2021/12/15 08:43:28;;;;;;;6.63;4.00;;;3.00;98.00;;;;;;5015024;28;20033;-76
2021/12/15 08:46:15;;;;;;;5.85;3.13;;;3.00;98.00;;;;;;5015618;28;20419;-76
2021/12/15 08:48:43;;;;;;;6.47;3.90;;;3.00;98.00;;;;;;5014887;28;20045;-76
2021/12/15 08:51:10;;;;;;;5.78;3.70;;;3.00;98.00;;;;;;4996220;28;20407;-76
2021/12/15 08:53:38;;;;;;;4.97;2.95;;;3.10;98.00;;;;;;5010549;28;20034;-75
2021/12/15 08:56:04;;;;;;;7.43;3.90;;;3.00;98.00;;;;;;5011416;28;20372;-76
2021/12/15 08:58:30;;;;;;;7.65;4.35;;;3.00;98.00;;;;;;5015809;28;20097;-76
2021/12/15 09:00:57;;;;;;;6.53;3.92;;;3.00;98.00;;;;;;5015466;28;20113;-76
2021/12/15 09:03:24;;;;;;;6.43;3.85;;;3.10;98.00;;;;;;5014457;28;20091;-76
2021/12/15 09:05:52;;;;;;;6.78;4.15;;;3.10;98.00;;;;;;5015454;28;20105;-75
2021/12/15 09:08:23;;;;;;;6.80;4.30;;;3.10;98.00;;;;;;5013979;28;20040;-76
2021/12/15 09:10:51;;;;;;;5.82;3.50;;;3.10;98.00;;;;;;5019552;28;20041;-76
2021/12/15 09:13:17;;;;;;;6.53;3.90;;;3.00;98.00;;;;;;5018969;28;20022;-76
2021/12/15 09:15:43;;;;;;;7.20;4.18;;;3.10;98.00;;;;;;5018246;28;20413;-75
2021/12/15 09:18:10;;;;;;;6.10;3.63;;;3.20;98.00;;;;;;5018826;28;20020;-76
2021/12/15 09:20:40;;;;;;;6.80;3.45;;;3.30;98.00;;;;;;5019029;28;20065;-76
2021/12/15 09:23:08;;;;;;;5.35;3.15;;;3.40;98.00;;;;;;5017613;28;20033;-76
2021/12/15 09:25:35;;;;;;;5.13;2.95;;;3.30;98.00;;;;;;5018967;28;20026;-76
2021/12/15 09:28:01;;;;;;;5.90;3.00;;;3.40;98.00;;;;;;5018757;28;20304;-77
2021/12/15 09:30:29;;;;;;;5.63;2.97;;;3.30;98.00;;;;;;5019055;28;20033;-76
2021/12/15 09:32:55;;;;;;;5.20;2.78;;;3.20;98.00;;;;;;5018072;28;20027;-75
2021/12/15 09:35:23;;;;;;;6.97;3.55;;;3.00;98.00;;;;;;5018319;28;20080;-75
2021/12/15 09:37:50;;;;;;;6.07;3.17;;;2.90;98.00;;;;;;5016312;28;20113;-76
2021/12/15 09:40:22;;;;;;;5.90;3.30;;;3.00;98.00;;;;;;5018785;28;20319;-76
2021/12/15 09:42:49;;;;;;;6.00;3.40;;;3.00;98.00;;;;;;5018605;28;20014;-77
2021/12/15 10:20:03;;;;;;;5.95;3.40;;;3.60;98.00;;;;;;5017444;28;20030;-77
2021/12/15 10:25:13;;;;;;;6.38;3.53;;;3.90;98.00;;;;;;5017255;28;20037;-76
2021/12/15 10:27:44;;;;;;;5.37;3.00;;;3.90;98.00;;;;;;5016086;28;20497;-77
2021/12/15 10:30:15;;;;;;;5.55;2.80;;;3.80;98.00;;;;;;5016770;28;20041;-77
2021/12/15 10:32:43;;;;;;;5.15;2.97;;;3.80;98.00;;;;;;4998423;28;20026;-77
2021/12/15 10:35:22;;;;;;;5.90;3.15;;;4.00;98.00;;;;;;4998477;28;20015;-77
2021/12/15 10:38:10;;;;;;;5.80;3.00;;;3.90;98.00;;;;;;4997194;28;20026;-77
2021/12/15 10:40:48;;;;;;;6.97;3.80;;;4.00;98.00;;;;;;4998027;28;20033;-78
2021/12/15 10:43:14;;;;;;;6.75;3.60;;;4.10;98.00;;;;;;5017137;28;20068;-77
2021/12/15 10:45:44;;;;;;;7.15;3.58;;;4.10;98.00;;;;;;5016058;28;20441;-76
2021/12/15 10:48:20;;;;;;;9.25;5.10;;;3.80;98.00;;;;;;5017749;28;20176;-77
2021/12/15 10:50:47;;;;;;;7.43;4.15;;;3.60;98.00;;;;;;5017395;28;20022;-76
2021/12/15 10:53:13;;;;;;;8.63;4.80;;;3.50;98.00;;;;;;5016262;28;20029;-77
2021/12/15 10:55:38;;;;;;;7.00;3.83;;;3.50;98.00;;;;;;5017389;28;20022;-77
2021/12/15 10:58:35;;;;;;;8.85;4.80;;;3.70;98.00;;;;;;5017322;28;20108;-77
2021/12/15 11:01:06;;;;;;;8.38;4.43;;;3.80;98.00;;;;;;5015551;28;20042;-77
2021/12/15 11:03:35;;;;;;;9.07;4.50;;;3.90;98.00;;;;;;5016027;28;20114;-77
2021/12/15 11:06:18;;;;;;;9.32;5.38;;;4.00;98.00;;;;;;5016032;28;20030;-77
2021/12/15 11:08:44;;;;;;;11.15;6.28;;;4.10;98.00;;;;;;5007497;28;20041;-77
2021/12/15 11:11:23;;;;;;;9.55;4.95;;;4.10;98.00;;;;;;5015412;28;20423;-77
2021/12/15 11:13:49;;;;;;;9.68;5.30;;;4.30;98.00;;;;;;5016029;28;20018;-78
2021/12/15 11:16:30;;;;;;;10.95;6.15;;;4.40;98.00;;;;;;5013810;28;20037;-77
2021/12/15 11:18:58;;;;;;;10.95;6.20;;;4.50;98.00;;;;;;5002568;28;20049;-77
2021/12/15 11:21:31;;;;;;;12.63;6.90;;;4.50;98.00;;;;;;5015641;28;20025;-77
2021/12/15 11:23:56;;;;;;;11.70;6.80;;;4.50;98.00;;;;;;5013210;28;20057;-77
2021/12/15 11:26:23;;;;;;;36.25;18.92;;;4.60;98.00;;;;;;5016729;28;20080;-77
2021/12/15 11:28:51;;;;;;;64.15;35.28;;;4.60;98.00;;;;;;5015401;28;20061;-77
2021/12/15 11:31:28;;;;;;;43.80;25.38;;;4.60;98.00;;;;;;5016664;28;20072;-77
2021/12/15 11:34:03;;;;;;;17.38;10.98;;;4.70;98.00;;;;;;5003002;28;20336;-77
2021/12/15 11:36:48;;;;;;;17.40;10.02;;;4.60;98.00;;;;;;5015625;28;20025;-77
2021/12/15 11:39:17;;;;;;;14.25;7.50;;;4.60;98.00;;;;;;5014064;28;20076;-77
2021/12/15 11:41:46;;;;;;;12.90;7.78;;;4.60;98.00;;;;;;5016033;28;20033;-77
2021/12/15 11:44:14;;;;;;;16.20;9.23;;;4.40;98.00;;;;;;5015851;28;20037;-78
2021/12/15 11:46:51;;;;;;;17.13;9.95;;;4.40;98.00;;;;;;5015290;28;20438;-77
2021/12/15 11:49:22;;;;;;;14.55;9.20;;;4.60;98.00;;;;;;5016502;28;20030;-77
2021/12/15 11:51:50;;;;;;;15.35;8.15;;;4.60;98.00;;;;;;5014803;28;20052;-77
2021/12/15 11:54:24;;;;;;;12.52;7.72;;;4.50;98.00;;;;;;5000009;28;20454;-77
2021/12/15 11:56:51;;;;;;;;;;;4.60;98.00;;;;;;5013403;28;20041;-77
2021/12/15 11:59:18;;;;;;;12.18;7.47;;;4.70;98.00;;;;;;5013603;28;19910;-77
2021/12/15 12:01:52;;;;;;;12.57;7.38;;;4.70;98.00;;;;;;5013755;28;20031;-75
2021/12/15 12:04:22;;;;;;;;;;;4.80;98.00;;;;;;5017319;28;20080;-75
2021/12/15 12:06:50;;;;;;;16.63;9.07;;;4.60;98.00;;;;;;5014211;28;20214;-75
2021/12/15 12:09:19;;;;;;;13.50;8.23;;;4.50;98.00;;;;;;5014840;28;20129;-73
2021/12/15 12:11:52;;;;;;;13.32;8.45;;;4.50;98.00;;;;;;5016036;28;20022;-73
2021/12/15 12:14:37;;;;;;;15.30;8.75;;;4.50;98.00;;;;;;5016343;28;20105;-74
2021/12/15 12:17:12;;;;;;;18.13;11.38;;;4.30;98.00;;;;;;5014480;28;20061;-74
2021/12/15 12:19:46;;;;;;;18.23;10.45;;;4.20;98.00;;;;;;5015864;28;20018;-73
2021/12/15 12:22:15;;;;;;;16.63;9.32;;;4.30;98.00;;;;;;5006822;28;20094;-73
2021/12/15 12:24:43;;;;;;;15.65;9.02;;;4.50;98.00;;;;;;5008180;28;20025;-73
2021/12/15 12:27:10;;;;;;;19.15;11.00;;;4.50;98.00;;;;;;5005648;28;20080;-73
2021/12/15 12:29:36;;;;;;;13.65;8.23;;;4.50;98.00;;;;;;5013549;28;20052;-73
2021/12/15 12:32:04;;;;;;;10.93;6.65;;;4.60;98.00;;;;;;5014107;28;20056;-74
2021/12/15 12:34:31;;;;;;;12.15;7.25;;;4.60;98.00;;;;;;5014465;28;20137;-73
2021/12/15 12:36:58;;;;;;;10.27;6.15;;;4.50;98.00;;;;;;5003327;28;20056;-74
2021/12/15 12:39:31;;;;;;;11.77;7.68;;;4.50;98.00;;;;;;5005533;28;20022;-73
2021/12/15 12:41:57;;;;;;;10.20;6.60;;;4.60;98.00;;;;;;4996935;28;20054;-73
2021/12/15 12:44:32;;;;;;;13.77;8.68;;;4.60;98.00;;;;;;5005666;28;20141;-74
2021/12/15 12:47:05;;;;;;;13.85;7.70;;;4.60;98.00;;;;;;5011982;28;20113;-76
2021/12/15 13:01:00;;;;;;;15.05;8.80;;;4.30;98.00;;;;;;5000788;28;20061;-75
2021/12/15 13:03:40;;;;;;;14.38;8.05;;;4.30;98.00;;;;;;5013424;28;20076;-75
2021/12/15 13:06:25;;;;;;;11.88;6.90;;;4.30;98.00;;;;;;5012798;28;20034;-75
2021/12/15 13:08:59;;;;;;;13.50;8.32;;;4.10;98.00;;;;;;5013218;28;20036;-76
2021/12/15 13:11:34;;;;;;;13.85;7.50;;;4.00;98.00;;;;;;5014783;28;20034;-76
2021/12/15 13:14:14;;;;;;;13.75;8.52;;;4.00;98.00;;;;;;5014796;28;20438;-75
2021/12/15 13:16:53;;;;;;;12.77;7.97;;;4.00;98.00;;;;;;5013609;28;20045;-75
2021/12/15 13:19:21;;;;;;;13.63;7.65;;;4.10;98.00;;;;;;5028655;28;20036;-75
2021/12/15 13:30:30;;;;;;;12.65;8.60;;;4.40;98.00;;;;;;5014954;28;20103;-76
2021/12/15 13:33:04;;;;;;;14.63;9.07;;;4.50;98.00;;;;;;5013855;28;20029;-76
2021/12/15 13:35:37;;;;;;;12.95;8.40;;;4.50;98.00;;;;;;5012614;28;20022;-76
2021/12/15 13:38:03;;;;;;;26.75;15.27;;;4.50;98.00;;;;;;5014600;28;20054;-76
2021/12/15 13:40:49;;;;;;;12.45;8.27;;;4.60;98.00;;;;;;5015328;28;20034;-76
2021/12/15 13:43:55;;;;;;;12.75;7.35;;;4.60;98.00;;;;;;5014291;28;20112;-76
2021/12/15 13:46:35;;;;;;;14.10;8.45;;;4.60;98.00;;;;;;5014346;28;20033;-76
2021/12/15 13:49:19;;;;;;;11.95;7.40;;;4.60;98.00;;;;;;5014588;28;20018;-75
2021/12/15 13:51:58;;;;;;;14.88;8.93;;;4.60;98.00;;;;;;5015716;28;20034;-74
2021/12/15 13:54:44;;;;;;;13.35;7.82;;;4.40;98.00;;;;;;5016101;28;20030;-74
2021/12/15 13:57:13;;;;;;;15.77;8.98;;;4.30;98.00;;;;;;4998732;28;20103;-74
2021/12/15 13:59:52;;;;;;;13.45;8.07;;;4.30;98.00;;;;;;5036325;28;20022;-75
2021/12/15 14:02:26;;;;;;;19.02;11.77;;;4.30;98.00;;;;;;5017014;28;20034;-76
2021/12/15 14:05:15;;;;;;;9.88;6.28;;;4.40;98.00;;;;;;5017657;28;20036;-75
2021/12/15 14:08:02;;;;;;;10.15;6.68;;;4.20;98.00;;;;;;5015780;28;20038;-74
2021/12/15 14:10:28;;;;;;;12.35;6.75;;;4.00;98.00;;;;;;5014447;28;20029;-74
2021/12/15 14:12:58;;;;;;;11.35;7.03;;;3.80;98.00;;;;;;5015260;28;20410;-76
2021/12/15 14:15:38;;;;;;;11.82;6.90;;;3.80;98.00;;;;;;5015687;28;20112;-75
2021/12/15 14:18:27;;;;;;;13.68;8.25;;;3.70;98.00;;;;;;5008236;28;20035;-75
2021/12/15 14:21:01;;;;;;;12.23;8.23;;;3.80;98.00;;;;;;5018229;28;20033;-75
2021/12/15 14:23:35;;;;;;;12.23;7.15;;;3.70;98.00;;;;;;5012126;28;20100;-74
2021/12/15 14:26:04;;;;;;;11.48;7.13;;;3.60;98.00;;;;;;5014929;28;20022;-74
2021/12/15 14:28:39;;;;;;;12.55;7.35;;;3.60;98.00;;;;;;5017027;28;20077;-75
2021/12/15 14:31:10;;;;;;;14.23;7.68;;;3.70;98.00;;;;;;5017798;28;20084;-75
2021/12/15 14:33:43;;;;;;;11.40;7.18;;;3.60;98.00;;;;;;5013637;28;20433;-75
2021/12/15 14:36:21;;;;;;;14.57;8.20;;;3.60;98.00;;;;;;5016508;28;20033;-76
2021/12/15 14:38:51;;;;;;;14.57;8.25;;;3.50;98.00;;;;;;5012348;28;20072;-77
2021/12/15 14:41:32;;;;;;;11.77;7.20;;;3.40;98.00;;;;;;4999479;28;20030;-75
2021/12/15 14:44:02;;;;;;;12.52;7.05;;;3.30;98.00;;;;;;5015491;28;20026;-75
2021/12/15 14:46:50;;;;;;;12.48;7.25;;;3.30;98.00;;;;;;5017184;28;20041;-75
2021/12/15 14:49:25;;;;;;;11.65;6.80;;;3.40;98.00;;;;;;5016068;28;20699;-75
2021/12/15 14:51:56;;;;;;;13.75;8.80;;;3.30;98.00;;;;;;5013723;28;20034;-74
2021/12/15 14:54:24;;;;;;;28.58;20.63;;;3.40;98.00;;;;;;5017336;28;20030;-75